Terminal Aerodrome Forecast
Issued by NWS Jackson, MS

Home | Current Version | Previous Version | Text Only | Print | Product List | Glossary On
Versions: 1 2 3 4 5 6 7 8 9 10 11 12 13
000
FTUS44 KJAN 192300 RRA
TAFMEI
TAF
KMEI 192344Z 2000/2024 04007KT 6SM -RA SCT015 BKN030 OVC070
     FM200900 01006KT 4SM BR SCT003 BKN007 OVC020
     FM201200 01005KT 4SM BR BKN003 OVC015
     FM201500 03007KT P6SM SCT007 BKN015 OVC030
     FM202000 02005KT P6SM SCT030 BKN050=

USA.gov is the U.S. government's official web portal to all federal, state and local government web resources and services.